sensor_id;sensor_type;location;lat;lon;timestamp;pressure;altitude;pressure_sealevel;temperature;humidity
76732;BME280;65656;51.130;13.658;2023-03-01T00:03:38;100749.06;;;-5.62;99.73
76732;BME280;65656;51.130;13.658;2023-03-01T00:07:41;100760.66;;;-5.74;99.12
76732;BME280;65656;51.130;13.658;2023-03-01T00:11:43;100754.66;;;-5.65;100.00
76732;BME280;65656;51.130;13.658;2023-03-01T00:15:45;100752.22;;;-5.68;100.00
76732;BME280;65656;51.130;13.658;2023-03-01T00:19:46;100747.31;;;-5.74;99.63
76732;BME280;65656;51.130;13.658;2023-03-01T00:23:49;100744.69;;;-5.86;99.26
76732;BME280;65656;51.130;13.658;2023-03-01T00:27:51;100747.47;;;-5.88;99.39
76732;BME280;65656;51.130;13.658;2023-03-01T00:31:52;100751.41;;;-6.05;97.36
76732;BME280;65656;51.130;13.658;2023-03-01T00:35:54;100747.59;;;-6.13;97.46
76732;BME280;65656;51.130;13.658;2023-03-01T00:39:57;100743.28;;;-6.03;100.00
76732;BME280;65656;51.130;13.658;2023-03-01T00:43:58;100740.09;;;-6.08;99.16
76732;BME280;65656;51.130;13.658;2023-03-01T00:48:00;100741.00;;;-6.21;98.96
76732;BME280;65656;51.130;13.658;2023-03-01T00:52:01;100729.25;;;-6.18;99.65
76732;BME280;65656;51.130;13.658;2023-03-01T00:56:06;100730.53;;;-6.24;99.36
76732;BME280;65656;51.130;13.658;2023-03-01T01:00:08;100712.81;;;-6.12;99.98
76732;BME280;65656;51.130;13.658;2023-03-01T01:04:12;100721.38;;;-6.20;99.67
76732;BME280;65656;51.130;13.658;2023-03-01T01:08:14;100723.72;;;-5.91;100.00
76732;BME280;65656;51.130;13.658;2023-03-01T01:12:17;100718.84;;;-5.86;100.00
76732;BME280;65656;51.130;13.658;2023-03-01T01:16:20;100722.19;;;-6.06;99.58
76732;BME280;65656;51.130;13.658;2023-03-01T01:20:21;100717.72;;;-6.19;98.90
76732;BME280;65656;51.130;13.658;2023-03-01T01:24:23;100721.28;;;-6.31;99.17
76732;BME280;65656;51.130;13.658;2023-03-01T01:28:26;100714.91;;;-6.41;99.05
76732;BME280;65656;51.130;13.658;2023-03-01T01:32:28;100707.19;;;-6.20;100.00
76732;BME280;65656;51.130;13.658;2023-03-01T01:36:30;100704.94;;;-6.26;100.00
76732;BME280;65656;51.130;13.658;2023-03-01T01:40:32;100691.94;;;-6.31;100.00
76732;BME280;65656;51.130;13.658;2023-03-01T01:44:34;100699.56;;;-6.37;100.00
76732;BME280;65656;51.130;13.658;2023-03-01T01:48:39;100695.13;;;-6.26;100.00
76732;BME280;65656;51.130;13.658;2023-03-01T01:52:42;100700.59;;;-6.27;100.00
76732;BME280;65656;51.130;13.658;2023-03-01T01:56:47;100697.75;;;-6.37;100.00
76732;BME280;65656;51.130;13.658;2023-03-01T02:00:51;100692.56;;;-6.14;100.00
76732;BME280;65656;51.130;13.658;2023-03-01T02:05:05;100687.88;;;-6.24;100.00
76732;BME280;65656;51.130;13.658;2023-03-01T02:09:11;100686.44;;;-6.40;99.44
76732;BME280;65656;51.130;13.658;2023-03-01T02:13:14;100677.13;;;-6.35;100.00
76732;BME280;65656;51.130;13.658;2023-03-01T02:17:18;100677.19;;;-6.24;100.00
76732;BME280;65656;51.130;13.658;2023-03-01T02:21:38;100676.41;;;-6.37;100.00
76732;BME280;65656;51.130;13.658;2023-03-01T02:25:49;100679.38;;;-6.29;100.00
76732;BME280;65656;51.130;13.658;2023-03-01T02:29:53;100672.81;;;-6.25;100.00
76732;BME280;65656;51.130;13.658;2023-03-01T02:33:57;100665.50;;;-6.34;99.76
76732;BME280;65656;51.130;13.658;2023-03-01T02:37:59;100658.75;;;-6.27;100.00
76732;BME280;65656;51.130;13.658;2023-03-01T02:42:02;100645.31;;;-6.01;100.00
76732;BME280;65656;51.130;13.658;2023-03-01T02:46:08;100647.84;;;-6.24;100.00
76732;BME280;65656;51.130;13.658;2023-03-01T02:50:16;100646.88;;;-6.23;100.00
76732;BME280;65656;51.130;13.658;2023-03-01T02:54:23;100651.63;;;-6.39;98.71
76732;BME280;65656;51.130;13.658;2023-03-01T02:58:26;100658.25;;;-6.68;96.39
76732;BME280;65656;51.130;13.658;2023-03-01T03:02:30;100663.47;;;-6.80;97.80
76732;BME280;65656;51.130;13.658;2023-03-01T03:06:31;100652.38;;;-6.74;98.86
76732;BME280;65656;51.130;13.658;2023-03-01T03:10:36;100651.53;;;-6.87;97.94
76732;BME280;65656;51.130;13.658;2023-03-01T03:14:37;100647.28;;;-7.02;98.16
76732;BME280;65656;51.130;13.658;2023-03-01T03:18:40;100638.75;;;-6.94;99.88
76732;BME280;65656;51.130;13.658;2023-03-01T03:22:42;100638.31;;;-6.76;100.00
76732;BME280;65656;51.130;13.658;2023-03-01T03:26:43;100644.38;;;-6.74;99.99
76732;BME280;65656;51.130;13.658;2023-03-01T03:30:45;100644.50;;;-6.75;100.00
76732;BME280;65656;51.130;13.658;2023-03-01T03:34:47;100638.34;;;-6.88;99.31
76732;BME280;65656;51.130;13.658;2023-03-01T03:38:49;100634.59;;;-6.86;99.87
76732;BME280;65656;51.130;13.658;2023-03-01T03:42:51;100625.56;;;-6.96;99.91
76732;BME280;65656;51.130;13.658;2023-03-01T03:46:52;100618.66;;;-6.98;100.00
76732;BME280;65656;51.130;13.658;2023-03-01T03:50:56;100615.75;;;-6.83;100.00
76732;BME280;65656;51.130;13.658;2023-03-01T03:54:57;100621.88;;;-6.69;100.00
76732;BME280;65656;51.130;13.658;2023-03-01T03:58:59;100620.63;;;-6.77;100.00
76732;BME280;65656;51.130;13.658;2023-03-01T04:03:00;100626.84;;;-6.89;99.90
76732;BME280;65656;51.130;13.658;2023-03-01T04:07:03;100631.75;;;-7.08;98.79
76732;BME280;65656;51.130;13.658;2023-03-01T04:11:05;100639.88;;;-7.22;97.99
76732;BME280;65656;51.130;13.658;2023-03-01T04:15:07;100642.22;;;-7.31;98.30
76732;BME280;65656;51.130;13.658;2023-03-01T04:19:09;100644.56;;;-7.39;96.88
76732;BME280;65656;51.130;13.658;2023-03-01T04:23:13;100647.09;;;-7.50;96.75
76732;BME280;65656;51.130;13.658;2023-03-01T04:27:14;100640.47;;;-7.57;96.82
76732;BME280;65656;51.130;13.658;2023-03-01T04:31:18;100639.00;;;-7.61;97.07
76732;BME280;65656;51.130;13.658;2023-03-01T04:35:20;100623.78;;;-7.59;98.65
76732;BME280;65656;51.130;13.658;2023-03-01T04:39:22;100626.63;;;-7.49;98.53
76732;BME280;65656;51.130;13.658;2023-03-01T04:43:24;100624.50;;;-7.57;97.64
76732;BME280;65656;51.130;13.658;2023-03-01T04:47:25;100624.28;;;-7.67;97.47
76732;BME280;65656;51.130;13.658;2023-03-01T04:51:27;100629.84;;;-7.70;97.23
76732;BME280;65656;51.130;13.658;2023-03-01T04:55:30;100628.53;;;-7.64;98.49
76732;BME280;65656;51.130;13.658;2023-03-01T04:59:31;100625.25;;;-7.55;99.39
76732;BME280;65656;51.130;13.658;2023-03-01T05:03:33;100631.44;;;-7.42;100.00
76732;BME280;65656;51.130;13.658;2023-03-01T05:07:34;100631.00;;;-7.61;98.56
76732;BME280;65656;51.130;13.658;2023-03-01T05:11:37;100631.72;;;-7.72;97.94
76732;BME280;65656;51.130;13.658;2023-03-01T05:15:39;100623.84;;;-7.73;98.98
76732;BME280;65656;51.130;13.658;2023-03-01T05:19:40;100626.63;;;-7.75;98.92
76732;BME280;65656;51.130;13.658;2023-03-01T05:23:42;100623.88;;;-7.61;99.84
76732;BME280;65656;51.130;13.658;2023-03-01T05:27:45;100620.47;;;-7.50;99.78
76732;BME280;65656;51.130;13.658;2023-03-01T05:31:46;100612.38;;;-7.61;97.81
76732;BME280;65656;51.130;13.658;2023-03-01T05:35:48;100612.78;;;-7.67;98.13
76732;BME280;65656;51.130;13.658;2023-03-01T05:39:51;100607.88;;;-7.73;98.65
76732;BME280;65656;51.130;13.658;2023-03-01T05:43:53;100606.09;;;-7.60;99.57
76732;BME280;65656;51.130;13.658;2023-03-01T05:47:55;100610.91;;;-7.52;100.00
76732;BME280;65656;51.130;13.658;2023-03-01T05:51:56;100616.19;;;-7.65;98.34
76732;BME280;65656;51.130;13.658;2023-03-01T05:55:58;100614.06;;;-7.73;98.08
76732;BME280;65656;51.130;13.658;2023-03-01T06:00:01;100612.78;;;-7.16;96.24
76732;BME280;65656;51.130;13.658;2023-03-01T06:04:03;100618.56;;;-7.22;94.83
76732;BME280;65656;51.130;13.658;2023-03-01T06:08:05;100623.88;;;-7.48;94.26
76732;BME280;65656;51.130;13.658;2023-03-01T06:12:07;100621.66;;;-7.54;96.30
76732;BME280;65656;51.130;13.658;2023-03-01T06:16:10;100618.56;;;-7.61;94.87
76732;BME280;65656;51.130;13.658;2023-03-01T06:20:14;100621.53;;;-7.65;94.97
76732;BME280;65656;51.130;13.658;2023-03-01T06:24:16;100626.84;;;-7.65;95.22
76732;BME280;65656;51.130;13.658;2023-03-01T06:28:17;100623.84;;;-7.73;96.13
76732;BME280;65656;51.130;13.658;2023-03-01T06:32:20;100630.91;;;-7.60;95.46
76732;BME280;65656;51.130;13.658;2023-03-01T06:36:21;100625.78;;;-7.50;95.99
76732;BME280;65656;51.130;13.658;2023-03-01T06:40:23;100624.50;;;-7.32;97.60
76732;BME280;65656;51.130;13.658;2023-03-01T06:44:25;100630.19;;;-7.23;96.40
76732;BME280;65656;51.130;13.658;2023-03-01T06:48:27;100635.59;;;-7.12;96.14
76732;BME280;65656;51.130;13.658;2023-03-01T06:52:30;100632.38;;;-6.92;97.12
76732;BME280;65656;51.130;13.658;2023-03-01T06:56:32;100636.16;;;-6.70;98.63
76732;BME280;65656;51.130;13.658;2023-03-01T07:00:34;100626.75;;;-6.63;97.78
76732;BME280;65656;51.130;13.658;2023-03-01T07:04:37;100633.16;;;-6.53;97.79
76732;BME280;65656;51.130;13.658;2023-03-01T07:08:38;100635.16;;;-6.44;97.94
76732;BME280;65656;51.130;13.658;2023-03-01T07:12:40;100636.91;;;-6.32;97.44
76732;BME280;65656;51.130;13.658;2023-03-01T07:16:42;100628.53;;;-6.14;98.15
76732;BME280;65656;51.130;13.658;2023-03-01T07:20:44;100630.78;;;-5.97;98.25
76732;BME280;65656;51.130;13.658;2023-03-01T07:24:46;100615.75;;;-5.52;99.82
76732;BME280;65656;51.130;13.658;2023-03-01T07:28:47;100614.06;;;-5.30;99.44
76732;BME280;65656;51.130;13.658;2023-03-01T07:32:49;100606.44;;;-5.13;98.87
76732;BME280;65656;51.130;13.658;2023-03-01T07:36:52;100600.72;;;-4.97;96.26
76732;BME280;65656;51.130;13.658;2023-03-01T07:40:57;100611.03;;;-4.92;94.56
76732;BME280;65656;51.130;13.658;2023-03-01T07:44:58;100598.41;;;-4.79;95.63
76732;BME280;65656;51.130;13.658;2023-03-01T07:49:00;100607.38;;;-4.58;95.29
76732;BME280;65656;51.130;13.658;2023-03-01T07:53:03;100598.13;;;-4.54;93.36
76732;BME280;65656;51.130;13.658;2023-03-01T07:57:04;100602.47;;;-4.41;93.70
76732;BME280;65656;51.130;13.658;2023-03-01T08:01:07;100599.00;;;-4.21;93.98
76732;BME280;65656;51.130;13.658;2023-03-01T08:05:10;100597.50;;;-4.03;92.75
76732;BME280;65656;51.130;13.658;2023-03-01T08:09:12;100596.16;;;-4.08;89.16
76732;BME280;65656;51.130;13.658;2023-03-01T08:13:14;100604.69;;;-4.03;88.89
76732;BME280;65656;51.130;13.658;2023-03-01T08:17:16;100586.53;;;-4.00;89.83
76732;BME280;65656;51.130;13.658;2023-03-01T08:21:18;100579.59;;;-3.81;88.83
76732;BME280;65656;51.130;13.658;2023-03-01T08:25:21;100581.47;;;-3.61;90.45
76732;BME280;65656;51.130;13.658;2023-03-01T08:29:23;100574.00;;;-3.37;89.13
76732;BME280;65656;51.130;13.658;2023-03-01T08:33:24;100577.44;;;-3.25;88.20
76732;BME280;65656;51.130;13.658;2023-03-01T08:37:26;100576.50;;;-3.14;88.24
76732;BME280;65656;51.130;13.658;2023-03-01T08:41:29;100575.09;;;-2.88;87.39
76732;BME280;65656;51.130;13.658;2023-03-01T08:45:30;100571.13;;;-2.84;86.40
76732;BME280;65656;51.130;13.658;2023-03-01T08:49:32;100578.53;;;-2.66;87.73
76732;BME280;65656;51.130;13.658;2023-03-01T08:53:33;100578.59;;;-2.47;86.69
76732;BME280;65656;51.130;13.658;2023-03-01T08:57:36;100572.53;;;-2.30;85.95
76732;BME280;65656;51.130;13.658;2023-03-01T09:01:38;100575.81;;;-2.16;84.15
76732;BME280;65656;51.130;13.658;2023-03-01T09:05:40;100565.88;;;-1.87;83.95
76732;BME280;65656;51.130;13.658;2023-03-01T09:09:41;100559.41;;;-1.84;84.05
76732;BME280;65656;51.130;13.658;2023-03-01T09:13:45;100553.13;;;-1.56;83.40
76732;BME280;65656;51.130;13.658;2023-03-01T09:17:47;100550.88;;;-1.51;82.08
76732;BME280;65656;51.130;13.658;2023-03-01T09:21:48;100545.47;;;-1.41;81.61
76732;BME280;65656;51.130;13.658;2023-03-01T09:25:50;100531.56;;;-1.27;82.51
76732;BME280;65656;51.130;13.658;2023-03-01T09:29:52;100523.53;;;-0.99;81.11
76732;BME280;65656;51.130;13.658;2023-03-01T09:33:54;100529.06;;;-1.01;79.57
76732;BME280;65656;51.130;13.658;2023-03-01T09:37:56;100527.03;;;-0.71;77.63
76732;BME280;65656;51.130;13.658;2023-03-01T09:42:02;100518.88;;;-0.79;78.10
76732;BME280;65656;51.130;13.658;2023-03-01T09:46:06;100528.63;;;-0.51;78.18
76732;BME280;65656;51.130;13.658;2023-03-01T09:50:12;100526.06;;;-0.07;76.40
76732;BME280;65656;51.130;13.658;2023-03-01T09:54:14;100531.56;;;-0.09;73.32
76732;BME280;65656;51.130;13.658;2023-03-01T09:58:31;100523.56;;;-0.01;73.60
76732;BME280;65656;51.130;13.658;2023-03-01T10:02:41;100524.56;;;-0.02;73.54
76732;BME280;65656;51.130;13.658;2023-03-01T10:06:51;100526.72;;;0.13;69.83
76732;BME280;65656;51.130;13.658;2023-03-01T10:10:57;100522.72;;;0.17;71.24
76732;BME280;65656;51.130;13.658;2023-03-01T10:15:03;100534.13;;;0.11;70.16
76732;BME280;65656;51.130;13.658;2023-03-01T10:19:11;100532.19;;;0.21;71.47
76732;BME280;65656;51.130;13.658;2023-03-01T10:23:13;100520.22;;;0.41;69.16
76732;BME280;65656;51.130;13.658;2023-03-01T10:27:17;100529.47;;;0.65;70.63
76732;BME280;65656;51.130;13.658;2023-03-01T10:31:24;100526.88;;;0.81;69.66
76732;BME280;65656;51.130;13.658;2023-03-01T10:35:29;100520.09;;;0.77;68.68
76732;BME280;65656;51.130;13.658;2023-03-01T10:39:33;100518.09;;;0.79;67.01
76732;BME280;65656;51.130;13.658;2023-03-01T10:43:43;100509.06;;;0.96;65.96
76732;BME280;65656;51.130;13.658;2023-03-01T10:47:45;100513.81;;;1.02;67.06
76732;BME280;65656;51.130;13.658;2023-03-01T10:51:50;100499.53;;;1.10;67.25
76732;BME280;65656;51.130;13.658;2023-03-01T10:55:58;100493.69;;;1.39;66.70
76732;BME280;65656;51.130;13.658;2023-03-01T11:00:14;100493.00;;;1.29;66.02
76732;BME280;65656;51.130;13.658;2023-03-01T11:04:16;100488.78;;;1.26;64.57
76732;BME280;65656;51.130;13.658;2023-03-01T11:08:29;100484.31;;;1.59;67.99
76732;BME280;65656;51.130;13.658;2023-03-01T11:12:35;100481.63;;;2.00;66.36
76732;BME280;65656;51.130;13.658;2023-03-01T11:16:38;100482.28;;;1.78;64.23
76732;BME280;65656;51.130;13.658;2023-03-01T11:20:40;100476.56;;;1.89;65.53
76732;BME280;65656;51.130;13.658;2023-03-01T11:24:46;100482.28;;;1.94;64.75
76732;BME280;65656;51.130;13.658;2023-03-01T11:29:04;100474.34;;;2.09;63.23
76732;BME280;65656;51.130;13.658;2023-03-01T11:33:17;100468.63;;;2.20;62.11
76732;BME280;65656;51.130;13.658;2023-03-01T11:37:26;100462.84;;;2.31;61.47
76732;BME280;65656;51.130;13.658;2023-03-01T11:41:33;100459.66;;;2.28;57.33
76732;BME280;65656;51.130;13.658;2023-03-01T11:45:45;100469.09;;;2.32;58.28
76732;BME280;65656;51.130;13.658;2023-03-01T11:54:24;100452.19;;;2.38;54.88
76732;BME280;65656;51.130;13.658;2023-03-01T11:58:35;100453.56;;;2.42;53.76
76732;BME280;65656;51.130;13.658;2023-03-01T12:02:56;100440.00;;;2.50;56.19
76732;BME280;65656;51.130;13.658;2023-03-01T12:07:05;100447.09;;;2.51;56.45
76732;BME280;65656;51.130;13.658;2023-03-01T12:11:22;100442.16;;;2.63;56.29
76732;BME280;65656;51.130;13.658;2023-03-01T12:15:42;100441.38;;;2.38;56.87
76732;BME280;65656;51.130;13.658;2023-03-01T12:20:05;100434.88;;;2.63;57.52
76732;BME280;65656;51.130;13.658;2023-03-01T12:24:32;100433.63;;;2.35;60.23
76732;BME280;65656;51.130;13.658;2023-03-01T12:28:55;100421.78;;;2.36;58.58
76732;BME280;65656;51.130;13.658;2023-03-01T12:33:13;100423.63;;;2.43;57.59
76732;BME280;65656;51.130;13.658;2023-03-01T12:37:27;100414.97;;;2.48;57.38
76732;BME280;65656;51.130;13.658;2023-03-01T12:41:41;100412.53;;;2.69;57.81
76732;BME280;65656;51.130;13.658;2023-03-01T12:45:51;100407.16;;;2.61;55.90
76732;BME280;65656;51.130;13.658;2023-03-01T12:50:02;100398.81;;;3.10;59.18
76732;BME280;65656;51.130;13.658;2023-03-01T12:54:14;100396.56;;;3.22;56.16
76732;BME280;65656;51.130;13.658;2023-03-01T12:58:23;100401.03;;;3.38;58.83
76732;BME280;65656;51.130;13.658;2023-03-01T13:02:29;100389.50;;;2.82;55.90
76732;BME280;65656;51.130;13.658;2023-03-01T13:06:40;100383.31;;;3.04;55.40
76732;BME280;65656;51.130;13.658;2023-03-01T13:10:49;100378.25;;;3.24;57.43
76732;BME280;65656;51.130;13.658;2023-03-01T13:14:54;100374.63;;;5.46;52.89
76732;BME280;65656;51.130;13.658;2023-03-01T13:19:06;100380.28;;;5.09;51.37
76732;BME280;65656;51.130;13.658;2023-03-01T13:23:13;100388.72;;;5.35;50.95
76732;BME280;65656;51.130;13.658;2023-03-01T13:27:24;100387.00;;;4.77;52.48
76732;BME280;65656;51.130;13.658;2023-03-01T13:31:59;100374.31;;;4.98;49.99
76732;BME280;65656;51.130;13.658;2023-03-01T13:36:01;100376.38;;;5.32;48.89
76732;BME280;65656;51.130;13.658;2023-03-01T13:44:47;100373.59;;;5.47;50.24
76732;BME280;65656;51.130;13.658;2023-03-01T13:48:51;100369.72;;;4.99;50.24
76732;BME280;65656;51.130;13.658;2023-03-01T13:52:56;100365.97;;;5.00;51.37
76732;BME280;65656;51.130;13.658;2023-03-01T13:57:00;100355.75;;;3.69;51.49
76732;BME280;65656;51.130;13.658;2023-03-01T14:01:06;100355.63;;;3.40;52.72
76732;BME280;65656;51.130;13.658;2023-03-01T14:05:09;100359.38;;;3.39;53.38
76732;BME280;65656;51.130;13.658;2023-03-01T14:09:20;100354.44;;;3.19;53.73
76732;BME280;65656;51.130;13.658;2023-03-01T14:13:35;100348.06;;;3.12;52.37
76732;BME280;65656;51.130;13.658;2023-03-01T14:17:59;100353.41;;;3.20;56.84
76732;BME280;65656;51.130;13.658;2023-03-01T14:22:13;100348.78;;;3.52;55.08
76732;BME280;65656;51.130;13.658;2023-03-01T14:26:20;100345.28;;;3.66;54.91
76732;BME280;65656;51.130;13.658;2023-03-01T14:30:24;100337.06;;;3.74;54.87
76732;BME280;65656;51.130;13.658;2023-03-01T14:34:28;100345.75;;;3.47;55.79
76732;BME280;65656;51.130;13.658;2023-03-01T14:38:32;100326.97;;;3.22;56.99
76732;BME280;65656;51.130;13.658;2023-03-01T14:42:35;100320.78;;;3.14;58.51
76732;BME280;65656;51.130;13.658;2023-03-01T14:46:40;100323.97;;;3.17;57.21
76732;BME280;65656;51.130;13.658;2023-03-01T14:50:44;100315.44;;;3.28;58.50
76732;BME280;65656;51.130;13.658;2023-03-01T14:54:48;100315.50;;;3.20;58.51
76732;BME280;65656;51.130;13.658;2023-03-01T14:58:58;100308.75;;;3.16;58.65
76732;BME280;65656;51.130;13.658;2023-03-01T15:03:04;100303.03;;;3.11;59.76
76732;BME280;65656;51.130;13.658;2023-03-01T15:07:11;100303.53;;;3.15;59.79
76732;BME280;65656;51.130;13.658;2023-03-01T15:11:20;100309.78;;;3.15;58.29
76732;BME280;65656;51.130;13.658;2023-03-01T15:15:35;100312.16;;;3.10;60.50
76732;BME280;65656;51.130;13.658;2023-03-01T15:19:37;100302.41;;;3.01;59.93
76732;BME280;65656;51.130;13.658;2023-03-01T15:23:40;100300.75;;;3.00;58.65
76732;BME280;65656;51.130;13.658;2023-03-01T15:27:45;100296.16;;;2.77;61.85
76732;BME280;65656;51.130;13.658;2023-03-01T15:31:54;100294.09;;;2.79;61.98
76732;BME280;65656;51.130;13.658;2023-03-01T15:35:57;100294.22;;;2.86;61.45
76732;BME280;65656;51.130;13.658;2023-03-01T15:40:01;100289.28;;;2.67;61.46
76732;BME280;65656;51.130;13.658;2023-03-01T15:44:14;100297.22;;;2.68;62.18
76732;BME280;65656;51.130;13.658;2023-03-01T15:48:18;100286.03;;;2.71;61.43
76732;BME280;65656;51.130;13.658;2023-03-01T15:52:23;100281.41;;;2.49;62.47
76732;BME280;65656;51.130;13.658;2023-03-01T15:56:27;100278.44;;;2.36;63.07
76732;BME280;65656;51.130;13.658;2023-03-01T16:00:29;100282.41;;;2.17;63.75
76732;BME280;65656;51.130;13.658;2023-03-01T16:04:31;100272.00;;;1.98;64.61
76732;BME280;65656;51.130;13.658;2023-03-01T16:08:32;100279.63;;;1.86;63.99
76732;BME280;65656;51.130;13.658;2023-03-01T16:12:35;100287.09;;;1.67;64.80
76732;BME280;65656;51.130;13.658;2023-03-01T16:16:37;100283.25;;;1.46;65.51
76732;BME280;65656;51.130;13.658;2023-03-01T16:20:39;100283.06;;;1.39;65.93
76732;BME280;65656;51.130;13.658;2023-03-01T16:24:40;100289.50;;;1.14;67.19
76732;BME280;65656;51.130;13.658;2023-03-01T16:28:44;100289.50;;;0.97;68.84
76732;BME280;65656;51.130;13.658;2023-03-01T16:32:48;100301.78;;;0.92;68.36
76732;BME280;65656;51.130;13.658;2023-03-01T16:36:49;100309.38;;;0.80;69.21
76732;BME280;65656;51.130;13.658;2023-03-01T16:40:51;100316.06;;;0.68;71.95
76732;BME280;65656;51.130;13.658;2023-03-01T16:44:55;100319.72;;;0.50;68.31
76732;BME280;65656;51.130;13.658;2023-03-01T16:48:57;100313.44;;;0.34;70.17
76732;BME280;65656;51.130;13.658;2023-03-01T16:52:58;100309.31;;;0.21;70.03
76732;BME280;65656;51.130;13.658;2023-03-01T16:57:00;100312.31;;;0.10;72.52
76732;BME280;65656;51.130;13.658;2023-03-01T17:01:08;100302.59;;;-0.09;70.08
76732;BME280;65656;51.130;13.658;2023-03-01T17:05:10;100306.31;;;-0.10;69.89
76732;BME280;65656;51.130;13.658;2023-03-01T17:09:12;100308.53;;;-0.05;70.83
76732;BME280;65656;51.130;13.658;2023-03-01T17:13:14;100311.69;;;-0.10;69.71
76732;BME280;65656;51.130;13.658;2023-03-01T17:17:17;100310.00;;;-0.11;73.71
76732;BME280;65656;51.130;13.658;2023-03-01T17:21:19;100314.22;;;-0.34;72.20
76732;BME280;65656;51.130;13.658;2023-03-01T17:25:20;100322.88;;;-0.48;71.60
76732;BME280;65656;51.130;13.658;2023-03-01T17:29:21;100310.19;;;-0.56;72.86
76732;BME280;65656;51.130;13.658;2023-03-01T17:33:24;100323.38;;;-0.71;72.76
76732;BME280;65656;51.130;13.658;2023-03-01T17:37:26;100325.31;;;-0.81;74.66
76732;BME280;65656;51.130;13.658;2023-03-01T17:41:27;100333.38;;;-0.81;74.00
76732;BME280;65656;51.130;13.658;2023-03-01T17:45:29;100331.09;;;-0.76;74.41
76732;BME280;65656;51.130;13.658;2023-03-01T17:49:32;100330.00;;;-0.83;76.21
76732;BME280;65656;51.130;13.658;2023-03-01T17:53:34;100334.16;;;-1.06;74.51
76732;BME280;65656;51.130;13.658;2023-03-01T17:57:37;100334.59;;;-1.29;74.86
76732;BME280;65656;51.130;13.658;2023-03-01T18:01:40;100335.50;;;-1.38;74.98
76732;BME280;65656;51.130;13.658;2023-03-01T18:05:43;100340.28;;;-1.59;76.00
76732;BME280;65656;51.130;13.658;2023-03-01T18:09:45;100335.81;;;-1.69;76.79
76732;BME280;65656;51.130;13.658;2023-03-01T18:13:47;100332.63;;;-1.82;78.52
76732;BME280;65656;51.130;13.658;2023-03-01T18:17:48;100340.03;;;-2.03;78.46
76732;BME280;65656;51.130;13.658;2023-03-01T18:21:51;100348.59;;;-2.17;79.22
76732;BME280;65656;51.130;13.658;2023-03-01T18:25:57;100329.41;;;-2.32;80.52
76732;BME280;65656;51.130;13.658;2023-03-01T18:29:58;100321.78;;;-2.37;81.38
76732;BME280;65656;51.130;13.658;2023-03-01T18:34:00;100329.22;;;-2.21;82.81
76732;BME280;65656;51.130;13.658;2023-03-01T18:38:03;100319.22;;;-2.29;81.13
76732;BME280;65656;51.130;13.658;2023-03-01T18:42:04;100322.34;;;-2.33;81.40
76732;BME280;65656;51.130;13.658;2023-03-01T18:46:06;100324.03;;;-2.42;80.80
76732;BME280;65656;51.130;13.658;2023-03-01T18:50:08;100325.50;;;-2.47;80.68
76732;BME280;65656;51.130;13.658;2023-03-01T18:54:11;100317.97;;;-1.97;77.33
76732;BME280;65656;51.130;13.658;2023-03-01T18:58:13;100321.19;;;-1.84;76.24
76732;BME280;65656;51.130;13.658;2023-03-01T19:02:14;100325.34;;;-1.99;77.81
76732;BME280;65656;51.130;13.658;2023-03-01T19:06:17;100325.66;;;-2.12;76.80
76732;BME280;65656;51.130;13.658;2023-03-01T19:10:20;100320.88;;;-2.18;77.48
76732;BME280;65656;51.130;13.658;2023-03-01T19:14:22;100323.94;;;-2.03;75.45
76732;BME280;65656;51.130;13.658;2023-03-01T19:18:23;100323.41;;;-2.07;75.75
76732;BME280;65656;51.130;13.658;2023-03-01T19:22:26;100318.66;;;-2.22;76.27
76732;BME280;65656;51.130;13.658;2023-03-01T19:26:29;100324.34;;;-2.45;77.75
76732;BME280;65656;51.130;13.658;2023-03-01T19:30:32;100322.00;;;-2.87;79.72
76732;BME280;65656;51.130;13.658;2023-03-01T19:34:33;100314.25;;;-3.09;79.68
76732;BME280;65656;51.130;13.658;2023-03-01T19:38:36;100307.75;;;-3.16;79.37
76732;BME280;65656;51.130;13.658;2023-03-01T19:42:39;100306.91;;;-3.26;81.20
76732;BME280;65656;51.130;13.658;2023-03-01T19:46:40;100309.44;;;-3.15;80.30
76732;BME280;65656;51.130;13.658;2023-03-01T19:50:42;100305.50;;;-3.01;79.38
76732;BME280;65656;51.130;13.658;2023-03-01T19:54:44;100308.59;;;-3.06;79.52
76732;BME280;65656;51.130;13.658;2023-03-01T19:58:47;100316.50;;;-3.14;80.64
76732;BME280;65656;51.130;13.658;2023-03-01T20:02:48;100317.63;;;-3.26;81.07
76732;BME280;65656;51.130;13.658;2023-03-01T20:06:50;100314.91;;;-3.36;81.15
76732;BME280;65656;51.130;13.658;2023-03-01T20:10:51;100318.88;;;-3.30;81.80
76732;BME280;65656;51.130;13.658;2023-03-01T20:14:54;100319.16;;;-3.33;82.46
76732;BME280;65656;51.130;13.658;2023-03-01T20:18:58;100316.94;;;-3.19;83.21
76732;BME280;65656;51.130;13.658;2023-03-01T20:23:00;100320.31;;;-3.07;82.51
76732;BME280;65656;51.130;13.658;2023-03-01T20:27:01;100312.84;;;-2.94;80.80
76732;BME280;65656;51.130;13.658;2023-03-01T20:31:06;100308.59;;;-3.06;79.72
76732;BME280;65656;51.130;13.658;2023-03-01T20:35:09;100303.09;;;-3.14;80.70
76732;BME280;65656;51.130;13.658;2023-03-01T20:39:10;100302.09;;;-3.13;80.38
76732;BME280;65656;51.130;13.658;2023-03-01T20:43:12;100294.50;;;-3.08;79.99
76732;BME280;65656;51.130;13.658;2023-03-01T20:47:14;100295.63;;;-3.01;81.32
76732;BME280;65656;51.130;13.658;2023-03-01T20:51:16;100295.31;;;-2.88;82.85
76732;BME280;65656;51.130;13.658;2023-03-01T20:55:18;100297.59;;;-2.84;80.02
76732;BME280;65656;51.130;13.658;2023-03-01T20:59:19;100301.94;;;-2.83;78.90
76732;BME280;65656;51.130;13.658;2023-03-01T21:03:22;100300.44;;;-2.95;78.03
76732;BME280;65656;51.130;13.658;2023-03-01T21:07:24;100298.44;;;-3.02;79.29
76732;BME280;65656;51.130;13.658;2023-03-01T21:11:25;100294.06;;;-2.94;80.67
76732;BME280;65656;51.130;13.658;2023-03-01T21:15:27;100290.53;;;-3.04;80.21